Mountain City, Nevada
Current Conditions -  °F | °C
As of 3:56 PM on Friday 21 Nov 2014 (Local Time) from KEKO Reporting Station
Clear Clear  
Wind Chill: 45°   Ceiling: Unl
Heat Index: 45°   Visibility: 10mi
Dew Point: 29°   Wind: 3mph
Humidity: 53%   Direction: 210°SSW
Pressure: 29.99"   Gusts: NA
Location:  41.84°N, 115.97°W
Report Text: KEKO 212356Z AUTO 21003KT 10SM CLR 07/M02 A2999 RMK AO2 SLP164 T00721017 10106 20033 56001
Loading
Personal Weather Stations






























Interactive Weather Map New forecast layout! Learn more

10-Day Weather Forecast

Advertisements
Track Severe Weather on mobile